createdAt,value
2018-12-01T00:00:12.481Z,12.00
2018-12-01T00:01:12.495Z,10.90
2018-12-01T00:02:12.511Z,11.50
2018-12-01T00:03:12.531Z,11.70
2018-12-01T00:04:12.546Z,11.40
2018-12-01T00:05:12.561Z,12.40
2018-12-01T00:06:12.577Z,26.00
2018-12-01T00:07:12.594Z,13.80
2018-12-01T00:08:12.612Z,18.10
2018-12-01T00:09:12.630Z,12.50
2018-12-01T00:10:12.642Z,12.90
2018-12-01T00:11:12.661Z,12.10
2018-12-01T00:12:12.679Z,11.70
2018-12-01T00:13:12.701Z,11.20
2018-12-01T00:14:12.709Z,11.10
2018-12-01T00:15:12.726Z,11.60
2018-12-01T00:16:12.745Z,14.30
2018-12-01T00:17:12.759Z,12.50
2018-12-01T00:18:12.782Z,15.80
2018-12-01T00:19:12.794Z,13.60
2018-12-01T00:20:12.809Z,12.70
2018-12-01T00:21:12.828Z,12.90
2018-12-01T00:22:12.941Z,13.70
2018-12-01T00:23:12.861Z,14.10
2018-12-01T00:24:12.874Z,13.50
2018-12-01T00:25:12.897Z,12.90
2018-12-01T00:26:12.910Z,17.70
2018-12-01T00:27:12.925Z,15.80
2018-12-01T00:28:12.942Z,29.00
2018-12-01T00:29:12.961Z,20.70
2018-12-01T00:30:12.975Z,20.50
2018-12-01T00:31:12.991Z,20.20
2018-12-01T00:32:13.014Z,12.60
2018-12-01T00:33:13.031Z,11.30
2018-12-01T00:34:13.038Z,10.30
2018-12-01T00:35:13.060Z,10.40
2018-12-01T00:36:13.074Z,10.20
2018-12-01T00:37:13.088Z,11.00
2018-12-01T00:38:13.105Z,11.00
2018-12-01T00:39:13.125Z,11.30
2018-12-01T00:40:13.139Z,11.60
2018-12-01T00:41:13.156Z,11.40
2018-12-01T00:42:13.173Z,10.40
2018-12-01T00:43:13.189Z,15.50
2018-12-01T00:44:13.203Z,12.10
2018-12-01T00:45:13.222Z,14.10
2018-12-01T00:46:13.235Z,11.80
2018-12-01T00:47:13.252Z,11.70
2018-12-01T00:48:13.268Z,13.30
2018-12-01T00:49:13.285Z,11.40
2018-12-01T00:50:13.311Z,9.70
2018-12-01T00:51:13.320Z,11.30
2018-12-01T00:52:13.340Z,11.30
2018-12-01T00:53:13.353Z,11.00
2018-12-01T00:54:13.370Z,12.00
2018-12-01T00:55:13.383Z,11.20
2018-12-01T00:56:13.402Z,10.90
2018-12-01T00:57:13.419Z,11.20
2018-12-01T00:58:13.435Z,10.60
2018-12-01T00:59:13.450Z,11.90
2018-12-01T01:00:13.466Z,12.10
2018-12-01T01:01:13.487Z,11.60
2018-12-01T01:02:13.497Z,10.50
2018-12-01T01:03:13.514Z,10.90
2018-12-01T01:04:13.531Z,11.20
2018-12-01T01:05:13.550Z,10.40
2018-12-01T01:06:13.566Z,11.70
2018-12-01T01:07:13.584Z,12.20
2018-12-01T01:08:13.598Z,10.80
2018-12-01T01:09:13.616Z,11.60
2018-12-01T01:10:13.628Z,11.60
2018-12-01T01:11:13.648Z,9.90
2018-12-01T01:12:13.662Z,10.80
2018-12-01T01:13:13.678Z,11.00
2018-12-01T01:14:13.695Z,10.50
2018-12-01T01:15:13.711Z,10.60
2018-12-01T01:16:13.727Z,10.90
2018-12-01T01:17:13.743Z,12.80
2018-12-01T01:18:13.759Z,10.80
2018-12-01T01:19:13.776Z,11.00
2018-12-01T01:20:13.792Z,11.90
2018-12-01T01:21:13.813Z,11.30
2018-12-01T01:22:13.824Z,11.50
2018-12-01T01:23:13.840Z,10.30
2018-12-01T01:24:13.860Z,10.40
2018-12-01T01:25:13.910Z,10.40
2018-12-01T01:26:13.889Z,10.90
2018-12-01T01:27:13.909Z,9.90
2018-12-01T01:28:13.922Z,12.70
2018-12-01T01:29:13.939Z,11.60
2018-12-01T01:30:13.954Z,14.60
2018-12-01T01:31:13.971Z,36.20
2018-12-01T01:32:14.138Z,28.90
2018-12-01T01:33:14.004Z,13.30
2018-12-01T01:34:14.024Z,13.90
2018-12-01T01:35:14.073Z,10.00
2018-12-01T01:36:14.053Z,11.80
2018-12-01T01:37:14.239Z,9.90
2018-12-01T01:38:14.084Z,9.90
2018-12-01T01:39:14.106Z,10.00
2018-12-01T01:40:14.120Z,10.80
2018-12-01T01:41:14.136Z,10.20
2018-12-01T01:42:14.152Z,10.00
2018-12-01T01:43:14.168Z,10.70
2018-12-01T01:44:14.183Z,10.10
2018-12-01T01:45:14.199Z,11.00
2018-12-01T01:46:14.215Z,10.50
2018-12-01T01:47:14.231Z,10.30
2018-12-01T01:48:14.248Z,12.00
2018-12-01T01:49:14.265Z,9.80
2018-12-01T01:50:14.283Z,10.60
2018-12-01T01:51:14.298Z,9.20
2018-12-01T01:52:14.315Z,10.00
2018-12-01T01:53:14.330Z,11.10
2018-12-01T01:54:14.349Z,10.90
2018-12-01T01:55:14.372Z,11.00
2018-12-01T01:56:14.380Z,10.90
2018-12-01T01:57:14.397Z,10.60
2018-12-01T01:58:14.413Z,12.00
2018-12-01T01:59:14.427Z,12.30
2018-12-01T02:00:14.449Z,11.90
2018-12-01T02:01:14.460Z,10.50
2018-12-01T02:02:14.476Z,10.40
2018-12-01T02:03:14.493Z,9.70
2018-12-01T02:04:14.511Z,10.10
2018-12-01T02:05:14.526Z,9.70
2018-12-01T02:06:14.540Z,10.70
2018-12-01T02:07:14.559Z,10.70
2018-12-01T02:08:14.572Z,10.40
2018-12-01T02:09:14.594Z,10.00
2018-12-01T02:10:14.620Z,10.60
2018-12-01T02:11:14.621Z,10.30
2018-12-01T02:12:14.639Z,10.40
2018-12-01T02:13:14.655Z,10.30
2018-12-01T02:14:14.674Z,10.00
2018-12-01T02:15:14.693Z,10.20
2018-12-01T02:16:14.702Z,10.00
2018-12-01T02:17:14.720Z,10.40
2018-12-01T02:18:14.735Z,10.10
2018-12-01T02:19:14.750Z,9.70
2018-12-01T02:20:14.771Z,10.30
2018-12-01T02:21:14.784Z,10.20
2018-12-01T02:22:14.798Z,10.00
2018-12-01T02:23:14.814Z,9.90
2018-12-01T02:24:14.830Z,9.80
2018-12-01T02:25:14.846Z,10.40
2018-12-01T02:26:14.862Z,10.00
2018-12-01T02:27:14.878Z,10.30
2018-12-01T02:28:14.895Z,10.30
2018-12-01T02:29:14.912Z,11.00
2018-12-01T02:30:14.926Z,12.40
2018-12-01T02:31:14.947Z,10.80
2018-12-01T02:32:14.961Z,9.80
2018-12-01T02:33:14.975Z,10.40
2018-12-01T02:34:14.990Z,9.90
2018-12-01T02:35:15.021Z,10.20
2018-12-01T02:36:15.025Z,9.60
2018-12-01T02:37:15.043Z,9.70
2018-12-01T02:38:15.057Z,11.40
2018-12-01T02:39:15.073Z,9.90
2018-12-01T02:40:15.090Z,10.50
2018-12-01T02:41:15.106Z,9.80
2018-12-01T02:42:15.121Z,11.50
2018-12-01T02:43:15.135Z,11.80
2018-12-01T02:44:15.153Z,9.90
2018-12-01T02:45:15.176Z,10.90
2018-12-01T02:46:15.185Z,10.20
2018-12-01T02:47:15.202Z,9.70
2018-12-01T02:48:15.214Z,9.10
2018-12-01T02:49:15.237Z,9.30
2018-12-01T02:50:15.253Z,9.60
2018-12-01T02:51:15.265Z,10.70
2018-12-01T02:52:15.282Z,9.10
2018-12-01T02:53:15.294Z,9.60
2018-12-01T02:54:15.315Z,10.10
2018-12-01T02:55:15.327Z,11.00
2018-12-01T02:56:15.343Z,12.10
2018-12-01T02:57:15.358Z,11.40
2018-12-01T02:58:15.374Z,11.80
2018-12-01T02:59:15.392Z,11.90
2018-12-01T03:00:15.417Z,10.70
2018-12-01T03:01:15.424Z,9.90
2018-12-01T03:02:15.438Z,9.80
2018-12-01T03:03:15.455Z,10.20
2018-12-01T03:04:15.469Z,9.90
2018-12-01T03:05:15.487Z,11.00
2018-12-01T03:06:15.501Z,10.10
2018-12-01T03:07:15.519Z,9.10
2018-12-01T03:08:15.684Z,10.00
2018-12-01T03:09:15.556Z,9.60
2018-12-01T03:10:15.564Z,10.40
2018-12-01T03:11:15.582Z,9.30
2018-12-01T03:12:15.598Z,10.30
2018-12-01T03:13:15.615Z,9.70
2018-12-01T03:14:15.631Z,10.00
2018-12-01T03:15:15.647Z,10.20
2018-12-01T03:16:15.661Z,10.40
2018-12-01T03:17:15.678Z,10.20
2018-12-01T03:18:15.692Z,10.50
2018-12-01T03:19:15.711Z,9.30
2018-12-01T03:20:15.726Z,10.60
2018-12-01T03:21:15.743Z,9.90
2018-12-01T03:22:15.758Z,10.80
2018-12-01T03:23:15.772Z,10.00
2018-12-01T03:24:15.790Z,9.20
2018-12-01T03:25:15.806Z,11.00
2018-12-01T03:26:15.819Z,10.70
2018-12-01T03:27:15.836Z,9.50
2018-12-01T03:28:15.855Z,10.30
2018-12-01T03:29:15.871Z,9.80
2018-12-01T03:30:15.884Z,10.10
2018-12-01T03:31:15.903Z,9.80
2018-12-01T03:32:15.918Z,10.10
2018-12-01T03:33:15.938Z,9.80
2018-12-01T03:34:15.964Z,9.20
2018-12-01T03:35:15.964Z,9.60
2018-12-01T03:36:15.982Z,9.70
2018-12-01T03:37:15.995Z,8.60
2018-12-01T03:38:16.010Z,9.20
2018-12-01T03:39:16.026Z,9.90
2018-12-01T03:40:16.044Z,9.60
2018-12-01T03:41:16.059Z,8.90
2018-12-01T03:42:16.081Z,9.30
2018-12-01T03:43:16.091Z,8.90
2018-12-01T03:44:16.105Z,9.30
2018-12-01T03:45:16.124Z,9.20
2018-12-01T03:46:16.136Z,9.10
2018-12-01T03:47:16.153Z,9.70
2018-12-01T03:48:16.169Z,9.20
2018-12-01T03:49:16.486Z,9.50
2018-12-01T03:50:16.200Z,9.10
2018-12-01T03:51:16.218Z,9.60
2018-12-01T03:52:16.232Z,10.00
2018-12-01T03:53:16.250Z,8.80
2018-12-01T03:54:16.265Z,9.20
2018-12-01T03:55:16.279Z,9.80
2018-12-01T03:56:16.297Z,9.10
2018-12-01T03:57:16.312Z,9.20
2018-12-01T03:58:16.327Z,8.40
2018-12-01T03:59:16.344Z,8.80
2018-12-01T04:00:16.362Z,9.30
2018-12-01T04:01:16.377Z,9.30
2018-12-01T04:02:16.389Z,9.60
2018-12-01T04:03:16.408Z,8.40
2018-12-01T04:04:16.421Z,9.50
2018-12-01T04:05:16.437Z,9.20
2018-12-01T04:06:16.492Z,8.60
2018-12-01T04:07:16.470Z,9.10
2018-12-01T04:08:16.487Z,9.00
2018-12-01T04:09:16.503Z,7.90
2018-12-01T04:10:16.518Z,8.80
2018-12-01T04:11:16.582Z,8.90
2018-12-01T04:12:16.552Z,8.80
2018-12-01T04:13:16.564Z,8.40
2018-12-01T04:14:16.579Z,7.50
2018-12-01T04:15:16.595Z,8.70
2018-12-01T04:16:16.613Z,7.90
2018-12-01T04:17:16.633Z,8.20
2018-12-01T04:18:16.644Z,7.50
2018-12-01T04:19:16.661Z,8.90
2018-12-01T04:20:16.675Z,8.30
2018-12-01T04:21:16.694Z,9.00
2018-12-01T04:22:16.708Z,8.10
2018-12-01T04:23:16.722Z,7.80
2018-12-01T04:24:16.740Z,7.30
2018-12-01T04:25:16.755Z,7.80
2018-12-01T04:26:16.771Z,7.70
2018-12-01T04:27:16.787Z,7.30
2018-12-01T04:28:16.802Z,7.40
2018-12-01T04:29:16.819Z,8.20
2018-12-01T04:30:16.836Z,7.50
2018-12-01T04:31:16.849Z,8.10
2018-12-01T04:32:16.869Z,8.00
2018-12-01T04:33:16.881Z,7.50
2018-12-01T04:34:16.896Z,7.20
2018-12-01T04:35:16.915Z,7.40
2018-12-01T04:36:16.931Z,7.30
2018-12-01T04:37:16.945Z,7.70
2018-12-01T04:38:16.961Z,8.10
2018-12-01T04:39:16.979Z,6.80
2018-12-01T04:40:16.995Z,7.60
2018-12-01T04:41:17.012Z,7.80
2018-12-01T04:42:17.025Z,7.80
2018-12-01T04:43:17.039Z,6.90
2018-12-01T04:44:17.058Z,7.40
2018-12-01T04:45:17.071Z,7.30
2018-12-01T04:46:17.089Z,8.00
2018-12-01T04:47:17.106Z,6.20
2018-12-01T04:48:17.121Z,7.20
2018-12-01T04:49:17.138Z,7.80
2018-12-01T04:50:17.150Z,7.40
2018-12-01T04:51:17.168Z,6.80
2018-12-01T04:52:17.182Z,7.80
2018-12-01T04:53:17.201Z,7.10
2018-12-01T04:54:17.214Z,6.90
2018-12-01T04:55:17.234Z,7.40
2018-12-01T04:56:17.247Z,6.70
2018-12-01T04:57:17.263Z,7.00
2018-12-01T04:58:17.282Z,6.10
2018-12-01T04:59:17.294Z,6.50
2018-12-01T05:00:17.310Z,6.20
2018-12-01T05:01:17.327Z,7.20
2018-12-01T05:02:17.342Z,6.60
2018-12-01T05:03:17.363Z,5.80
2018-12-01T05:04:17.474Z,6.20
2018-12-01T05:05:17.393Z,6.10
2018-12-01T05:06:17.407Z,6.00
2018-12-01T05:07:17.423Z,6.10
2018-12-01T05:08:17.439Z,6.30
2018-12-01T05:09:17.457Z,5.70
2018-12-01T05:10:17.472Z,6.00
2018-12-01T05:11:17.487Z,6.50
2018-12-01T05:12:17.508Z,6.40
2018-12-01T05:13:17.523Z,5.70
2018-12-01T05:14:17.537Z,6.10
2018-12-01T05:15:17.561Z,6.30
2018-12-01T05:16:17.567Z,6.20
2018-12-01T05:17:17.585Z,6.40
2018-12-01T05:18:17.600Z,6.50
2018-12-01T05:19:17.620Z,6.20
2018-12-01T05:20:17.633Z,6.40
2018-12-01T05:21:17.650Z,7.40
2018-12-01T05:22:17.666Z,7.70
2018-12-01T05:23:17.682Z,6.40
2018-12-01T05:24:17.698Z,5.80
2018-12-01T05:25:17.712Z,6.30
2018-12-01T05:26:17.730Z,6.50
2018-12-01T05:27:17.755Z,6.70
2018-12-01T05:28:17.760Z,6.40
2018-12-01T05:29:17.781Z,6.10
2018-12-01T05:30:17.797Z,6.90
2018-12-01T05:31:17.811Z,7.00
2018-12-01T05:32:17.827Z,6.80
2018-12-01T05:33:17.843Z,6.10
2018-12-01T05:34:17.863Z,6.30
2018-12-01T05:35:17.875Z,6.70
2018-12-01T05:36:17.889Z,5.90
2018-12-01T05:37:17.910Z,5.50
2018-12-01T05:38:17.923Z,7.20
2018-12-01T05:39:17.937Z,6.40
2018-12-01T05:40:17.955Z,6.10
2018-12-01T05:41:18.008Z,6.00
2018-12-01T05:42:17.989Z,6.70
2018-12-01T05:43:18.001Z,5.70
2018-12-01T05:44:18.020Z,6.30
2018-12-01T05:45:18.039Z,6.10
2018-12-01T05:46:18.051Z,11.60
2018-12-01T05:47:18.068Z,6.80
2018-12-01T05:48:18.083Z,7.20
2018-12-01T05:49:18.102Z,7.00
2018-12-01T05:50:18.113Z,6.60
2018-12-01T05:51:18.132Z,7.10
2018-12-01T05:52:18.146Z,5.90
2018-12-01T05:53:18.165Z,6.00
2018-12-01T05:54:18.183Z,5.80
2018-12-01T05:55:18.196Z,6.50
2018-12-01T05:56:18.210Z,5.20
2018-12-01T05:57:18.229Z,5.80
2018-12-01T05:58:18.243Z,5.80
2018-12-01T05:59:18.258Z,5.80
2018-12-01T06:00:18.276Z,5.80
2018-12-01T06:01:18.291Z,6.20
2018-12-01T06:02:18.306Z,6.30
2018-12-01T06:03:18.326Z,6.00
2018-12-01T06:04:18.342Z,5.80
2018-12-01T06:05:18.359Z,7.20
2018-12-01T06:06:18.372Z,6.70
2018-12-01T06:07:18.390Z,6.20
2018-12-01T06:08:18.407Z,6.60
2018-12-01T06:09:18.420Z,5.60
2018-12-01T06:10:18.435Z,6.20
2018-12-01T06:11:18.454Z,6.10
2018-12-01T06:12:18.477Z,5.70
2018-12-01T06:13:18.487Z,6.20
2018-12-01T06:14:18.500Z,5.90
2018-12-01T06:15:18.519Z,6.10
2018-12-01T06:16:18.535Z,6.00
2018-12-01T06:17:18.551Z,5.80
2018-12-01T06:18:18.567Z,6.50
2018-12-01T06:19:18.584Z,6.30
2018-12-01T06:20:18.600Z,6.00
2018-12-01T06:21:18.614Z,5.50
2018-12-01T06:22:18.629Z,6.60
2018-12-01T06:23:18.648Z,5.50
2018-12-01T06:24:18.663Z,5.90
2018-12-01T06:25:18.681Z,5.90
2018-12-01T06:26:18.695Z,6.00
2018-12-01T06:27:18.710Z,6.10
2018-12-01T06:28:18.730Z,6.20
2018-12-01T06:29:18.744Z,5.70
2018-12-01T06:30:18.760Z,5.70
2018-12-01T06:31:18.776Z,5.50
2018-12-01T06:32:18.792Z,5.40
2018-12-01T06:33:18.812Z,6.40
2018-12-01T06:34:18.824Z,6.20
2018-12-01T06:35:18.842Z,6.30
2018-12-01T06:36:18.860Z,6.00
2018-12-01T06:37:18.876Z,6.00
2018-12-01T06:38:18.890Z,5.60
2018-12-01T06:39:18.910Z,6.10
2018-12-01T06:40:18.926Z,5.90
2018-12-01T06:41:18.941Z,6.10
2018-12-01T06:42:18.954Z,5.60
2018-12-01T06:43:18.972Z,6.20
2018-12-01T06:44:18.990Z,6.00
2018-12-01T06:45:19.006Z,5.40
2018-12-01T06:46:19.019Z,6.10
2018-12-01T06:47:19.039Z,6.10
2018-12-01T06:48:19.053Z,6.50
2018-12-01T06:49:19.071Z,6.00
2018-12-01T06:50:19.087Z,6.40
2018-12-01T06:51:19.109Z,6.50
2018-12-01T06:52:19.122Z,5.90
2018-12-01T06:53:19.136Z,5.20
2018-12-01T06:54:19.153Z,5.60
2018-12-01T06:55:19.165Z,6.00
2018-12-01T06:56:19.185Z,6.50
2018-12-01T06:57:19.198Z,6.60
2018-12-01T06:58:19.221Z,6.20
2018-12-01T06:59:19.233Z,6.20
2018-12-01T07:00:19.250Z,5.50
2018-12-01T07:01:19.264Z,6.10
2018-12-01T07:02:19.282Z,5.60
2018-12-01T07:03:19.298Z,6.30
2018-12-01T07:04:19.318Z,6.40
2018-12-01T07:05:19.432Z,5.60
2018-12-01T07:06:19.347Z,6.20
2018-12-01T07:07:19.363Z,5.90
2018-12-01T07:08:19.377Z,5.30
2018-12-01T07:09:19.397Z,5.90
2018-12-01T07:10:19.420Z,6.50
2018-12-01T07:11:19.429Z,6.00
2018-12-01T07:12:19.447Z,6.30
2018-12-01T07:13:19.462Z,5.90
2018-12-01T07:14:19.476Z,6.10
2018-12-01T07:15:19.492Z,5.70
2018-12-01T07:16:19.508Z,6.00
2018-12-01T07:17:19.526Z,5.30
2018-12-01T07:18:19.545Z,6.80
2018-12-01T07:19:19.581Z,5.80
2018-12-01T07:20:19.577Z,6.50
2018-12-01T07:21:19.591Z,5.30
2018-12-01T07:22:19.607Z,6.00
2018-12-01T07:23:19.624Z,5.50
2018-12-01T07:24:19.642Z,5.60
2018-12-01T07:25:19.658Z,5.70
2018-12-01T07:26:19.671Z,5.90
2018-12-01T07:27:19.687Z,6.10
2018-12-01T07:28:19.904Z,5.30
2018-12-01T07:29:19.723Z,5.70
2018-12-01T07:30:19.742Z,5.60
2018-12-01T07:31:19.863Z,6.00
2018-12-01T07:32:19.770Z,5.60
2018-12-01T07:33:19.790Z,5.60
2018-12-01T07:34:19.852Z,6.10
2018-12-01T07:35:19.818Z,6.00
2018-12-01T07:36:19.835Z,5.20
2018-12-01T07:37:19.855Z,5.60
2018-12-01T07:38:19.869Z,5.60
2018-12-01T07:39:19.888Z,5.90
2018-12-01T07:40:19.906Z,6.00
2018-12-01T07:41:19.919Z,6.10
2018-12-01T07:42:19.932Z,5.40
2018-12-01T07:43:19.952Z,5.90
2018-12-01T07:44:19.967Z,6.20
2018-12-01T07:45:19.985Z,6.00
2018-12-01T07:46:19.997Z,5.70
2018-12-01T07:47:20.044Z,5.60
2018-12-01T07:48:20.032Z,5.80
2018-12-01T07:49:20.048Z,6.00
2018-12-01T07:50:20.065Z,5.50
2018-12-01T07:51:20.083Z,7.10
2018-12-01T07:52:20.103Z,6.40
2018-12-01T07:53:20.116Z,6.10
2018-12-01T07:54:20.132Z,5.80
2018-12-01T07:55:20.148Z,5.50
2018-12-01T07:56:20.166Z,6.00
2018-12-01T07:57:20.180Z,5.80
2018-12-01T07:58:20.195Z,6.00
2018-12-01T07:59:20.212Z,5.50
2018-12-01T08:00:20.228Z,5.50
2018-12-01T08:01:20.245Z,5.70
2018-12-01T08:02:20.260Z,6.00
2018-12-01T08:03:20.283Z,5.50
2018-12-01T08:04:20.294Z,5.70
2018-12-01T08:05:20.313Z,6.20
2018-12-01T08:06:20.328Z,6.10
2018-12-01T08:07:20.345Z,5.30
2018-12-01T08:08:20.360Z,4.90
2018-12-01T08:09:20.379Z,4.70
2018-12-01T08:10:20.397Z,5.00
2018-12-01T08:11:20.410Z,5.70
2018-12-01T08:12:20.426Z,5.50
2018-12-01T08:13:20.443Z,5.50
2018-12-01T08:14:20.461Z,6.00
2018-12-01T08:15:20.476Z,5.20
2018-12-01T08:16:20.495Z,6.30
2018-12-01T08:17:20.513Z,6.10
2018-12-01T08:18:20.525Z,5.00
2018-12-01T08:19:20.542Z,5.70
2018-12-01T08:20:20.561Z,5.30
2018-12-01T08:21:20.579Z,4.70
2018-12-01T08:22:20.595Z,4.80
2018-12-01T08:23:20.611Z,5.00
2018-12-01T08:24:20.627Z,5.00
2018-12-01T08:25:20.645Z,4.90
2018-12-01T08:26:20.658Z,4.80
2018-12-01T08:27:20.677Z,4.40
2018-12-01T08:28:20.692Z,6.50
2018-12-01T08:29:20.709Z,6.00
2018-12-01T08:30:20.731Z,5.10
2018-12-01T08:31:20.744Z,4.90
2018-12-01T08:32:20.759Z,5.50
2018-12-01T08:33:20.777Z,5.00
2018-12-01T08:34:20.791Z,4.70
2018-12-01T08:35:20.811Z,5.30
2018-12-01T08:36:20.827Z,5.20
2018-12-01T08:37:20.844Z,4.80
2018-12-01T08:38:20.860Z,5.00
2018-12-01T08:39:20.877Z,4.50
2018-12-01T08:40:20.891Z,5.40
2018-12-01T08:41:20.909Z,5.20
2018-12-01T08:42:20.924Z,4.10
2018-12-01T08:43:20.944Z,4.10
2018-12-01T08:44:20.962Z,4.20
2018-12-01T08:45:20.978Z,4.90
2018-12-01T08:46:20.994Z,4.00
2018-12-01T08:47:21.009Z,4.80
2018-12-01T08:48:21.029Z,4.60
2018-12-01T08:49:21.048Z,4.00
2018-12-01T08:50:21.067Z,4.80
2018-12-01T08:51:21.082Z,4.20
2018-12-01T08:52:21.100Z,5.10
2018-12-01T08:53:21.116Z,4.30
2018-12-01T08:54:21.128Z,4.90
2018-12-01T08:55:21.146Z,4.20
2018-12-01T08:56:21.165Z,4.70
2018-12-01T08:57:21.178Z,4.30
2018-12-01T08:58:21.199Z,4.50
2018-12-01T08:59:21.211Z,4.60
2018-12-01T09:00:21.228Z,4.40
2018-12-01T09:01:21.249Z,4.70
2018-12-01T09:02:21.264Z,4.50
2018-12-01T09:03:21.280Z,5.10
2018-12-01T09:04:21.296Z,5.10
2018-12-01T09:05:21.316Z,5.30
2018-12-01T09:06:21.337Z,4.50
2018-12-01T09:07:21.347Z,4.90
2018-12-01T09:08:21.367Z,4.80
2018-12-01T09:09:21.383Z,4.80
2018-12-01T09:10:21.398Z,4.70
2018-12-01T09:11:21.415Z,4.10
2018-12-01T09:12:21.434Z,5.00
2018-12-01T09:13:21.451Z,6.00
2018-12-01T09:14:21.469Z,4.50
2018-12-01T09:15:21.486Z,4.40
2018-12-01T09:16:21.503Z,4.60
2018-12-01T09:17:21.520Z,4.80
2018-12-01T09:18:21.534Z,5.10
2018-12-01T09:19:21.554Z,4.10
2018-12-01T09:20:21.570Z,4.80
2018-12-01T09:21:21.591Z,5.10
2018-12-01T09:22:21.604Z,4.40
2018-12-01T09:23:21.620Z,4.70
2018-12-01T09:24:21.639Z,4.70
2018-12-01T09:25:21.658Z,4.70
2018-12-01T09:26:21.675Z,4.80
2018-12-01T09:27:22.618Z,4.90
2018-12-01T09:28:21.706Z,5.80
2018-12-01T09:29:21.726Z,6.40
2018-12-01T09:30:21.797Z,5.00
2018-12-01T09:31:21.758Z,5.20
2018-12-01T09:32:21.777Z,4.80
2018-12-01T09:33:21.797Z,4.60
2018-12-01T09:34:21.808Z,4.50
2018-12-01T09:35:21.926Z,4.40
2018-12-01T09:36:21.845Z,4.90
2018-12-01T09:37:21.863Z,5.50
2018-12-01T09:38:21.876Z,4.80
2018-12-01T09:39:21.897Z,5.20
2018-12-01T09:40:21.911Z,5.10
2018-12-01T09:41:21.930Z,5.30
2018-12-01T09:42:24.832Z,4.80
2018-12-01T09:43:21.965Z,4.50
2018-12-01T09:44:21.982Z,4.00
2018-12-01T09:45:21.999Z,4.50
2018-12-01T09:46:22.017Z,5.20
2018-12-01T09:47:22.034Z,4.60
2018-12-01T09:48:22.050Z,4.60
2018-12-01T09:49:22.068Z,4.80
2018-12-01T09:50:22.082Z,5.00
2018-12-01T09:51:22.100Z,4.10
2018-12-01T09:52:22.120Z,4.60
2018-12-01T09:53:22.136Z,4.40
2018-12-01T09:54:22.162Z,4.70
2018-12-01T09:55:22.170Z,5.60
2018-12-01T09:56:22.185Z,4.80
2018-12-01T09:57:22.205Z,4.00
2018-12-01T09:58:22.219Z,4.10
2018-12-01T09:59:22.337Z,4.20
2018-12-01T10:00:22.254Z,4.60
2018-12-01T10:01:22.271Z,5.10
2018-12-01T10:02:22.289Z,4.70
2018-12-01T10:03:22.308Z,4.80
2018-12-01T10:04:22.326Z,4.50
2018-12-01T10:05:22.339Z,4.40
2018-12-01T10:06:22.358Z,4.80
2018-12-01T10:07:22.376Z,3.80
2018-12-01T10:08:22.391Z,4.10
2018-12-01T10:09:22.512Z,4.20
2018-12-01T10:10:22.427Z,5.00
2018-12-01T10:11:22.445Z,4.90
2018-12-01T10:12:22.463Z,5.10
2018-12-01T10:13:22.479Z,4.70
2018-12-01T10:14:22.595Z,4.90
2018-12-01T10:15:22.514Z,4.30
2018-12-01T10:16:22.536Z,26.80
2018-12-01T10:17:22.552Z,7.20
2018-12-01T10:18:22.565Z,6.70
2018-12-01T10:19:22.799Z,5.00
2018-12-01T10:20:22.598Z,3.90
2018-12-01T10:21:22.616Z,4.40
2018-12-01T10:22:22.633Z,4.70
2018-12-01T10:23:22.653Z,4.40
2018-12-01T10:24:22.670Z,4.80
2018-12-01T10:25:22.687Z,4.50
2018-12-01T10:26:22.703Z,4.40
2018-12-01T10:27:22.721Z,5.30
2018-12-01T10:28:22.737Z,5.00
2018-12-01T10:29:22.803Z,4.20
2018-12-01T10:30:22.770Z,4.90
2018-12-01T10:31:22.790Z,4.40
2018-12-01T10:32:22.807Z,4.50
2018-12-01T10:33:22.825Z,4.60
2018-12-01T10:34:22.839Z,4.50
2018-12-01T10:35:22.862Z,4.70
2018-12-01T10:36:22.877Z,4.40
2018-12-01T10:37:22.894Z,4.90
2018-12-01T10:38:22.909Z,5.30
2018-12-01T10:39:22.929Z,5.70
2018-12-01T10:40:22.946Z,4.50
2018-12-01T10:41:22.962Z,4.20
2018-12-01T10:42:22.978Z,4.00
2018-12-01T10:43:22.998Z,5.00
2018-12-01T10:44:23.014Z,4.30
2018-12-01T10:45:23.031Z,4.20
2018-12-01T10:46:23.048Z,4.60
2018-12-01T10:47:23.066Z,4.20
2018-12-01T10:48:23.083Z,5.00
2018-12-01T10:49:23.104Z,4.40
2018-12-01T10:50:23.120Z,4.10
2018-12-01T10:51:23.144Z,4.60
2018-12-01T10:52:23.153Z,4.70
2018-12-01T10:53:23.170Z,4.10
2018-12-01T10:54:23.187Z,4.10
2018-12-01T10:55:23.205Z,4.10
2018-12-01T10:56:23.222Z,3.90
2018-12-01T10:57:24.326Z,4.20
2018-12-01T10:58:23.257Z,3.70
2018-12-01T10:59:23.275Z,3.60
2018-12-01T11:00:23.294Z,4.50
2018-12-01T11:01:23.315Z,4.10
2018-12-01T11:02:23.329Z,3.20
2018-12-01T11:03:23.344Z,4.20
2018-12-01T11:04:23.362Z,3.20
2018-12-01T11:05:23.384Z,3.80
2018-12-01T11:06:23.396Z,3.80
2018-12-01T11:07:23.417Z,4.40
2018-12-01T11:08:23.432Z,3.80
2018-12-01T11:09:23.450Z,3.90
2018-12-01T11:10:23.468Z,3.70
2018-12-01T11:11:23.485Z,3.70
2018-12-01T11:12:23.504Z,3.20
2018-12-01T11:13:23.520Z,3.30
2018-12-01T11:14:23.536Z,4.10
2018-12-01T11:15:23.555Z,3.20
2018-12-01T11:16:23.573Z,4.10
2018-12-01T11:17:23.591Z,4.60
2018-12-01T11:18:23.610Z,3.70
2018-12-01T11:19:23.625Z,3.80
2018-12-01T11:20:23.643Z,4.30
2018-12-01T11:21:23.663Z,3.70
2018-12-01T11:22:23.677Z,3.70
2018-12-01T11:23:23.699Z,3.40
2018-12-01T11:24:23.715Z,3.70
2018-12-01T11:25:23.731Z,4.60
2018-12-01T11:26:23.751Z,3.60
2018-12-01T11:27:23.769Z,4.90
2018-12-01T11:28:23.786Z,3.80
2018-12-01T11:29:23.804Z,4.40
2018-12-01T11:30:23.822Z,4.20
2018-12-01T11:31:23.848Z,3.60
2018-12-01T11:32:23.857Z,5.40
2018-12-01T11:33:23.874Z,3.30
2018-12-01T11:34:23.893Z,4.20
2018-12-01T11:35:24.107Z,6.60
2018-12-01T11:36:23.929Z,4.50
2018-12-01T11:37:23.944Z,4.90
2018-12-01T11:38:23.963Z,3.70
2018-12-01T11:39:23.981Z,4.10
2018-12-01T11:40:24.002Z,3.60
2018-12-01T11:41:24.016Z,4.30
2018-12-01T11:42:24.032Z,4.00
2018-12-01T11:43:24.050Z,3.50
2018-12-01T11:44:24.068Z,4.50
2018-12-01T11:45:24.088Z,3.90
2018-12-01T11:46:24.103Z,4.60
2018-12-01T11:47:24.124Z,4.90
2018-12-01T11:48:24.142Z,4.40
2018-12-01T11:49:24.161Z,5.00
2018-12-01T11:50:24.175Z,4.70
2018-12-01T11:51:24.193Z,6.00
2018-12-01T11:52:24.213Z,4.00
2018-12-01T11:53:24.230Z,3.90
2018-12-01T11:54:24.246Z,4.20
2018-12-01T11:55:24.266Z,4.50
2018-12-01T11:56:24.282Z,4.80
2018-12-01T11:57:24.301Z,4.20
2018-12-01T11:58:24.318Z,3.90
2018-12-01T11:59:24.338Z,3.60
2018-12-01T12:00:24.356Z,3.30
2018-12-01T12:01:24.372Z,4.00
2018-12-01T12:02:24.392Z,4.00
2018-12-01T12:03:24.409Z,4.10
2018-12-01T12:04:24.428Z,3.70
2018-12-01T12:05:24.444Z,4.20
2018-12-01T12:06:24.461Z,4.30
2018-12-01T12:07:24.479Z,4.90
2018-12-01T12:08:24.497Z,4.00
2018-12-01T12:09:24.517Z,3.70
2018-12-01T12:10:24.531Z,4.30
2018-12-01T12:11:24.550Z,3.80
2018-12-01T12:12:24.571Z,4.30
2018-12-01T12:13:24.588Z,4.80
2018-12-01T12:14:24.614Z,5.00
2018-12-01T12:15:24.625Z,4.80
2018-12-01T12:16:24.642Z,5.20
2018-12-01T12:17:24.660Z,3.60
2018-12-01T12:18:24.677Z,4.40
2018-12-01T12:19:24.693Z,3.60
2018-12-01T12:20:24.711Z,3.30
2018-12-01T12:21:24.732Z,3.90
2018-12-01T12:22:24.746Z,5.80
2018-12-01T12:23:24.764Z,4.10
2018-12-01T12:24:24.782Z,34.80
2018-12-01T12:25:24.802Z,6.80
2018-12-01T12:26:24.819Z,6.80
2018-12-01T12:27:24.837Z,5.50
2018-12-01T12:28:24.857Z,5.40
2018-12-01T12:29:24.872Z,4.10
2018-12-01T12:30:26.018Z,4.10
2018-12-01T12:31:24.910Z,5.00
2018-12-01T12:32:24.926Z,4.60
2018-12-01T12:33:24.944Z,4.50
2018-12-01T12:34:24.961Z,4.20
2018-12-01T12:35:24.982Z,3.90
2018-12-01T12:36:25.001Z,4.20
2018-12-01T12:37:25.019Z,3.70
2018-12-01T12:38:25.035Z,4.20
2018-12-01T12:39:25.054Z,4.10
2018-12-01T12:40:25.074Z,3.90
2018-12-01T12:41:25.090Z,4.00
2018-12-01T12:42:25.107Z,3.90
2018-12-01T12:43:25.125Z,4.50
2018-12-01T12:44:25.144Z,4.10
2018-12-01T12:45:25.159Z,3.70
2018-12-01T12:46:25.177Z,4.20
2018-12-01T12:47:25.195Z,3.90
2018-12-01T12:48:25.213Z,4.60
2018-12-01T12:49:25.230Z,4.20
2018-12-01T12:50:25.250Z,4.00
2018-12-01T12:51:25.268Z,4.20
2018-12-01T12:52:25.287Z,3.70
2018-12-01T12:53:25.302Z,4.00
2018-12-01T12:54:25.322Z,3.90
2018-12-01T12:55:25.348Z,3.70
2018-12-01T12:56:25.358Z,4.10
2018-12-01T12:57:25.376Z,4.40
2018-12-01T12:58:25.393Z,3.70
2018-12-01T12:59:25.409Z,4.20
2018-12-01T13:00:25.432Z,3.90
2018-12-01T13:01:25.447Z,3.60
2018-12-01T13:02:25.465Z,4.10
2018-12-01T13:03:25.482Z,4.10
2018-12-01T13:04:25.503Z,4.00
2018-12-01T13:05:25.517Z,4.10
2018-12-01T13:06:25.536Z,3.80
2018-12-01T13:07:25.556Z,4.10
2018-12-01T13:08:25.569Z,3.40
2018-12-01T13:09:25.588Z,3.20
2018-12-01T13:10:25.606Z,4.10
2018-12-01T13:11:25.623Z,4.10
2018-12-01T13:12:25.642Z,3.60